Longwood, Missouri
Current Conditions -  °F | °C
As of 3:53 AM on Friday 24 Oct 2014 (Local Time) from KDMO Reporting Station
Overcast Overcast  
Wind Chill: 61°   Ceiling: 700
Heat Index: 61°   Visibility: 7mi
Dew Point: 57°   Wind: 7mph
Humidity: 87%   Direction: 230°SW
Pressure: 30.1"   Gusts: NA
Location:  38.8574°N, 93.2065°W
Report Text: KDMO 240853Z AUTO 23006KT 7SM OVC007 16/14 A3010 RMK AO2 CIG 006V011 SLP189 T01610139 55003
Loading
Personal Weather Stations






























Interactive Weather Map
Tropical Storm Tracking
New forecast layout! Learn more

10-Day Weather Forecast

Advertisements
Track Severe Weather on mobile